createdAt,value
2017-01-25T00:00:24.999Z,1019.34
2017-01-25T00:01:38.485Z,1019.32
2017-01-25T00:02:51.965Z,1019.34
2017-01-25T00:04:05.716Z,1019.31
2017-01-25T00:05:19.322Z,1019.3
2017-01-25T00:06:32.970Z,1019.32
2017-01-25T00:07:46.421Z,1019.36
2017-01-25T00:08:59.884Z,1019.31
2017-01-25T00:10:13.600Z,1019.36
2017-01-25T00:11:28.384Z,1019.29
2017-01-25T00:12:42.228Z,1019.35
2017-01-25T00:13:55.747Z,1019.28
2017-01-25T00:15:09.244Z,1019.28
2017-01-25T00:16:24.708Z,1019.28
2017-01-25T00:17:38.599Z,1019.23
2017-01-25T00:18:52.041Z,1019.21
2017-01-25T00:20:05.739Z,1019.25
2017-01-25T00:21:19.211Z,1019.18
2017-01-25T00:22:33.082Z,1019.22
2017-01-25T00:23:46.524Z,1019.24
2017-01-25T00:25:00.380Z,1019.18
2017-01-25T00:26:13.933Z,1019.21
2017-01-25T00:27:27.523Z,1019.14
2017-01-25T00:28:41.544Z,1019.18
2017-01-25T00:29:55.049Z,1019.18
2017-01-25T00:31:08.437Z,1019.12
2017-01-25T00:32:22.077Z,1019.14
2017-01-25T00:33:35.636Z,1019.08
2017-01-25T00:34:49.432Z,1019.11
2017-01-25T00:36:02.909Z,1019.07
2017-01-25T00:37:16.409Z,1019.09
2017-01-25T00:38:30.052Z,1019.09
2017-01-25T00:39:43.508Z,1019.06
2017-01-25T00:40:57.424Z,1019.07
2017-01-25T00:42:10.879Z,1019.07
2017-01-25T00:43:24.382Z,1019.12
2017-01-25T00:44:37.828Z,1019.09
2017-01-25T00:45:51.253Z,1019.09
2017-01-25T00:47:05.467Z,1019.1
2017-01-25T00:48:18.935Z,1019.13
2017-01-25T00:49:32.786Z,1019.07
2017-01-25T00:50:46.229Z,1019.03
2017-01-25T00:51:59.642Z,1019.07
2017-01-25T00:53:13.412Z,1019.09
2017-01-25T00:54:26.933Z,1019.07
2017-01-25T00:55:40.413Z,1019.07
2017-01-25T00:56:53.892Z,1019.07
2017-01-25T00:58:07.330Z,1019.01
2017-01-25T00:59:22.349Z,1019.03
2017-01-25T01:00:35.789Z,1019.04
2017-01-25T01:01:49.375Z,1019.02
2017-01-25T01:03:02.784Z,1019
2017-01-25T01:04:16.397Z,1018.96
2017-01-25T01:05:30.558Z,1019.03
2017-01-25T01:06:44.021Z,1019.01
2017-01-25T01:07:57.484Z,1019
2017-01-25T01:09:10.944Z,1019
2017-01-25T01:10:24.484Z,1019.05
2017-01-25T01:11:38.209Z,1019.04
2017-01-25T01:12:52.083Z,1019.05
2017-01-25T01:14:05.932Z,1019.1
2017-01-25T01:15:19.467Z,1019.12
2017-01-25T01:16:35.118Z,1019.07
2017-01-25T01:17:48.808Z,1019.12
2017-01-25T01:19:34.436Z,1019.11
2017-01-25T01:20:48.298Z,1019.11
2017-01-25T01:22:01.770Z,1019.1
2017-01-25T01:23:16.315Z,1019.13
2017-01-25T01:24:29.773Z,1019.13
2017-01-25T01:25:43.476Z,1019.17
2017-01-25T01:26:57.341Z,1019.14
2017-01-25T01:28:11.265Z,1019.16
2017-01-25T01:29:24.978Z,1019.11
2017-01-25T01:30:38.937Z,1019.17
2017-01-25T01:31:52.400Z,1019.14
2017-01-25T01:33:05.902Z,1019.12
2017-01-25T01:34:19.360Z,1019.1
2017-01-25T01:35:33.602Z,1019.09
2017-01-25T01:36:47.017Z,1019.04
2017-01-25T01:38:00.884Z,1019.07
2017-01-25T01:39:14.540Z,1019.08
2017-01-25T01:40:28.061Z,1019.09
2017-01-25T01:41:41.859Z,1019.03
2017-01-25T01:42:55.320Z,1019.06
2017-01-25T01:44:08.745Z,1019.1
2017-01-25T01:45:22.238Z,1019.09
2017-01-25T01:46:36.351Z,1019.05
2017-01-25T01:47:50.085Z,1019.03
2017-01-25T01:49:04.359Z,1019
2017-01-25T01:50:20.657Z,1018.96
2017-01-25T01:51:36.870Z,1019.01
2017-01-25T01:52:50.624Z,1018.95
2017-01-25T01:54:05.285Z,1019.01
2017-01-25T01:55:20.137Z,1018.94
2017-01-25T01:56:37.627Z,1018.94
2017-01-25T01:57:54.897Z,1018.95
2017-01-25T01:59:12.217Z,1018.95
2017-01-25T02:00:29.284Z,1018.89
2017-01-25T02:01:44.395Z,1018.87
2017-01-25T02:02:58.016Z,1018.87
2017-01-25T02:04:11.429Z,1018.89
2017-01-25T02:05:24.894Z,1018.91
2017-01-25T02:06:38.612Z,1018.92
2017-01-25T02:07:53.337Z,1018.91
2017-01-25T02:09:06.817Z,1018.87
2017-01-25T02:10:21.257Z,1018.92
2017-01-25T02:11:35.941Z,1018.91
2017-01-25T02:12:49.734Z,1018.9
2017-01-25T02:14:03.188Z,1018.89
2017-01-25T02:15:16.639Z,1018.85
2017-01-25T02:16:30.090Z,1018.9
2017-01-25T02:17:43.698Z,1018.92
2017-01-25T02:18:57.427Z,1018.9
2017-01-25T02:20:10.860Z,1018.95
2017-01-25T02:21:24.684Z,1018.97
2017-01-25T02:22:38.553Z,1018.99
2017-01-25T02:23:52.107Z,1018.94
2017-01-25T02:25:06.421Z,1018.95
2017-01-25T02:26:19.863Z,1018.94
2017-01-25T02:27:33.276Z,1019
2017-01-25T02:28:46.884Z,1019.04
2017-01-25T02:30:00.337Z,1019
2017-01-25T02:31:14.077Z,1019.1
2017-01-25T02:32:27.511Z,1019.03
2017-01-25T02:33:43.941Z,1018.99
2017-01-25T02:34:57.360Z,1018.99
2017-01-25T02:36:10.768Z,1018.93
2017-01-25T02:37:24.448Z,1018.98
2017-01-25T02:38:37.850Z,1018.96
2017-01-25T02:39:51.347Z,1019
2017-01-25T02:41:05.174Z,1018.95
2017-01-25T02:42:18.605Z,1018.97
2017-01-25T02:43:32.314Z,1018.9
2017-01-25T02:44:45.871Z,1018.87
2017-01-25T02:45:59.316Z,1018.92
2017-01-25T02:47:13.147Z,1018.96
2017-01-25T02:48:26.540Z,1018.93
2017-01-25T02:49:40.330Z,1018.93
2017-01-25T02:50:53.735Z,1018.89
2017-01-25T02:52:07.367Z,1018.96
2017-01-25T02:53:20.821Z,1018.92
2017-01-25T02:54:34.283Z,1018.92
2017-01-25T02:55:48.093Z,1018.95
2017-01-25T02:57:01.492Z,1018.87
2017-01-25T02:58:14.954Z,1018.93
2017-01-25T02:59:28.795Z,1018.95
2017-01-25T03:00:43.495Z,1018.9
2017-01-25T03:01:57.195Z,1018.85
2017-01-25T03:03:10.663Z,1018.93
2017-01-25T03:04:24.122Z,1018.9
2017-01-25T03:05:37.663Z,1018.88
2017-01-25T03:06:51.107Z,1018.91
2017-01-25T03:08:04.780Z,1018.95
2017-01-25T03:09:18.209Z,1018.84
2017-01-25T03:10:32.051Z,1018.85
2017-01-25T03:11:45.534Z,1018.92
2017-01-25T03:12:58.976Z,1018.89
2017-01-25T03:14:12.665Z,1018.88
2017-01-25T03:15:26.105Z,1018.88
2017-01-25T03:16:39.548Z,1018.8
2017-01-25T03:17:52.955Z,1018.77
2017-01-25T03:19:06.483Z,1018.72
2017-01-25T03:20:20.164Z,1018.78
2017-01-25T03:21:35.494Z,1018.8
2017-01-25T03:22:48.893Z,1018.81
2017-01-25T03:24:02.391Z,1018.89
2017-01-25T03:25:16.003Z,1018.9
2017-01-25T03:26:29.722Z,1018.88
2017-01-25T03:27:43.613Z,1018.88
2017-01-25T03:28:57.024Z,1018.83
2017-01-25T03:30:10.445Z,1018.82
2017-01-25T03:31:23.904Z,1018.81
2017-01-25T03:32:37.807Z,1018.79
2017-01-25T03:33:51.214Z,1018.83
2017-01-25T03:35:04.655Z,1018.77
2017-01-25T03:36:18.038Z,1018.74
2017-01-25T03:37:31.554Z,1018.74
2017-01-25T03:38:45.297Z,1018.76
2017-01-25T03:39:58.732Z,1018.77
2017-01-25T03:41:12.146Z,1018.73
2017-01-25T03:42:25.547Z,1018.68
2017-01-25T03:43:39.020Z,1018.66
2017-01-25T03:44:52.726Z,1018.65
2017-01-25T03:46:06.169Z,1018.65
2017-01-25T03:47:19.753Z,1018.65
2017-01-25T03:48:33.698Z,1018.61
2017-01-25T03:49:49.268Z,1018.65
2017-01-25T03:51:03.004Z,1018.63
2017-01-25T03:52:16.408Z,1018.68
2017-01-25T03:53:29.964Z,1018.69
2017-01-25T03:54:43.407Z,1018.72
2017-01-25T03:55:56.848Z,1018.78
2017-01-25T03:57:11.140Z,1018.72
2017-01-25T03:58:24.555Z,1018.74
2017-01-25T03:59:38.129Z,1018.77
2017-01-25T04:00:51.555Z,1018.75
2017-01-25T04:02:05.026Z,1018.73
2017-01-25T04:03:18.722Z,1018.76
2017-01-25T04:04:32.244Z,1018.73
2017-01-25T04:05:45.726Z,1018.76
2017-01-25T04:06:59.147Z,1018.77
2017-01-25T04:08:12.586Z,1018.76
2017-01-25T04:09:26.503Z,1018.75
2017-01-25T04:10:39.966Z,1018.74
2017-01-25T04:11:53.417Z,1018.7
2017-01-25T04:13:06.908Z,1018.71
2017-01-25T04:14:20.738Z,1018.73
2017-01-25T04:15:34.521Z,1018.72
2017-01-25T04:16:47.953Z,1018.74
2017-01-25T04:18:01.415Z,1018.72
2017-01-25T04:19:14.898Z,1018.73
2017-01-25T04:20:28.584Z,1018.76
2017-01-25T04:21:42.276Z,1018.7
2017-01-25T04:22:55.723Z,1018.68
2017-01-25T04:24:09.138Z,1018.69
2017-01-25T04:25:22.647Z,1018.66
2017-01-25T04:26:36.324Z,1018.7
2017-01-25T04:27:50.018Z,1018.69
2017-01-25T04:29:03.442Z,1018.67
2017-01-25T04:30:16.867Z,1018.67
2017-01-25T04:31:30.825Z,1018.6
2017-01-25T04:32:44.321Z,1018.66
2017-01-25T04:33:58.523Z,1018.69
2017-01-25T04:35:11.917Z,1018.62
2017-01-25T04:36:25.397Z,1018.66
2017-01-25T04:37:38.808Z,1018.66
2017-01-25T04:38:52.259Z,1018.7
2017-01-25T04:40:06.009Z,1018.66
2017-01-25T04:41:20.161Z,1018.67
2017-01-25T04:42:33.632Z,1018.63
2017-01-25T04:43:47.041Z,1018.62
2017-01-25T04:45:00.855Z,1018.67
2017-01-25T04:46:14.519Z,1018.62
2017-01-25T04:47:28.011Z,1018.66
2017-01-25T04:48:41.411Z,1018.7
2017-01-25T04:49:54.859Z,1018.68
2017-01-25T04:51:08.274Z,1018.7
2017-01-25T04:52:23.289Z,1018.71
2017-01-25T04:53:36.731Z,1018.7
2017-01-25T04:54:50.131Z,1018.77
2017-01-25T04:56:03.568Z,1018.74
2017-01-25T04:57:17.097Z,1018.73
2017-01-25T04:58:30.790Z,1018.73
2017-01-25T04:59:44.811Z,1018.73
2017-01-25T05:00:58.224Z,1018.63
2017-01-25T05:02:12.178Z,1018.69
2017-01-25T05:03:26.892Z,1018.58
2017-01-25T05:04:40.634Z,1018.62
2017-01-25T05:05:56.619Z,1018.64
2017-01-25T05:07:10.066Z,1018.57
2017-01-25T05:08:24.330Z,1018.57
2017-01-25T05:09:38.058Z,1018.6
2017-01-25T05:10:52.447Z,1018.62
2017-01-25T05:12:06.083Z,1018.48
2017-01-25T05:13:19.868Z,1018.56
2017-01-25T05:14:33.654Z,1018.56
2017-01-25T05:15:47.213Z,1018.56
2017-01-25T05:17:01.062Z,1018.59
2017-01-25T05:18:14.862Z,1018.57
2017-01-25T05:19:29.206Z,1018.57
2017-01-25T05:20:42.825Z,1018.57
2017-01-25T05:21:58.119Z,1018.56
2017-01-25T05:23:12.834Z,1018.5
2017-01-25T05:24:26.395Z,1018.45
2017-01-25T05:25:40.736Z,1018.47
2017-01-25T05:26:55.171Z,1018.47
2017-01-25T05:28:08.571Z,1018.49
2017-01-25T05:29:24.493Z,1018.45
2017-01-25T05:30:38.957Z,1018.47
2017-01-25T05:31:53.336Z,1018.46
2017-01-25T05:33:12.445Z,1018.48
2017-01-25T05:34:28.539Z,1018.52
2017-01-25T05:35:45.531Z,1018.49
2017-01-25T05:37:02.862Z,1018.51
2017-01-25T05:38:17.796Z,1018.56
2017-01-25T05:39:31.661Z,1018.56
2017-01-25T05:40:45.776Z,1018.55
2017-01-25T05:42:01.399Z,1018.55
2017-01-25T05:43:15.705Z,1018.5
2017-01-25T05:44:30.641Z,1018.52
2017-01-25T05:45:45.317Z,1018.55
2017-01-25T05:46:59.735Z,1018.54
2017-01-25T05:48:13.626Z,1018.55
2017-01-25T05:49:27.459Z,1018.57
2017-01-25T05:50:41.193Z,1018.5
2017-01-25T05:51:54.859Z,1018.56
2017-01-25T05:53:08.645Z,1018.63
2017-01-25T05:54:23.536Z,1018.56
2017-01-25T05:55:37.334Z,1018.54
2017-01-25T05:56:51.694Z,1018.61
2017-01-25T05:58:05.383Z,1018.62
2017-01-25T05:59:21.309Z,1018.64
2017-01-25T06:00:35.402Z,1018.66
2017-01-25T06:01:49.045Z,1018.59
2017-01-25T06:03:02.644Z,1018.7
2017-01-25T06:04:16.091Z,1018.66
2017-01-25T06:05:30.358Z,1018.68
2017-01-25T06:06:44.118Z,1018.67
2017-01-25T06:07:57.637Z,1018.72
2017-01-25T06:09:11.352Z,1018.71
2017-01-25T06:10:24.965Z,1018.82
2017-01-25T06:11:38.473Z,1018.71
2017-01-25T06:12:52.359Z,1018.76
2017-01-25T06:14:05.865Z,1018.69
2017-01-25T06:15:19.580Z,1018.78
2017-01-25T06:16:33.112Z,1018.72
2017-01-25T06:18:19.450Z,1018.77
2017-01-25T06:19:33.392Z,1018.69
2017-01-25T06:20:47.152Z,1018.79
2017-01-25T06:22:01.051Z,1018.81
2017-01-25T06:23:16.833Z,1018.83
2017-01-25T06:24:30.431Z,1018.76
2017-01-25T06:25:44.800Z,1018.81
2017-01-25T06:26:58.445Z,1018.83
2017-01-25T06:28:12.265Z,1018.86
2017-01-25T06:29:25.851Z,1018.89
2017-01-25T06:30:39.517Z,1018.88
2017-01-25T06:31:54.810Z,1018.92
2017-01-25T06:33:08.335Z,1018.9
2017-01-25T06:34:21.859Z,1018.89
2017-01-25T06:35:35.391Z,1018.87
2017-01-25T06:36:48.952Z,1018.84
2017-01-25T06:38:03.268Z,1018.97
2017-01-25T06:39:16.787Z,1018.84
2017-01-25T06:40:30.331Z,1018.81
2017-01-25T06:41:43.895Z,1018.84
2017-01-25T06:42:58.585Z,1018.88
2017-01-25T06:44:12.342Z,1018.89
2017-01-25T06:45:25.851Z,1018.88
2017-01-25T06:46:39.440Z,1018.89
2017-01-25T06:49:39.650Z,1018.92
2017-01-25T06:50:53.160Z,1018.88
2017-01-25T06:52:06.737Z,1018.88
2017-01-25T06:53:20.200Z,1018.91
2017-01-25T06:54:33.870Z,1018.91
2017-01-25T06:55:47.661Z,1018.93
2017-01-25T06:57:01.583Z,1018.94
2017-01-25T06:58:15.103Z,1018.91
2017-01-25T06:59:28.584Z,1018.9
2017-01-25T07:00:42.150Z,1018.87
2017-01-25T07:01:56.163Z,1018.89
2017-01-25T07:03:11.220Z,1019.01
2017-01-25T07:04:24.775Z,1018.87
2017-01-25T07:05:38.250Z,1018.95
2017-01-25T07:06:51.849Z,1019
2017-01-25T07:08:05.516Z,1018.94
2017-01-25T07:09:19.049Z,1018.94
2017-01-25T07:10:32.484Z,1018.92
2017-01-25T07:11:46.448Z,1018.89
2017-01-25T07:13:00.111Z,1018.89
2017-01-25T07:14:14.102Z,1018.92
2017-01-25T07:15:27.951Z,1018.96
2017-01-25T07:16:41.611Z,1018.92
2017-01-25T07:17:55.586Z,1019
2017-01-25T07:19:09.084Z,1018.96
2017-01-25T07:20:22.526Z,1019.01
2017-01-25T07:21:36.378Z,1018.99
2017-01-25T07:22:49.892Z,1018.96
2017-01-25T07:24:03.358Z,1018.96
2017-01-25T07:25:16.821Z,1019.02
2017-01-25T07:26:30.295Z,1019.02
2017-01-25T07:27:44.748Z,1018.99
2017-01-25T07:28:58.267Z,1018.97
2017-01-25T07:30:13.228Z,1018.99
2017-01-25T07:31:26.791Z,1019.01
2017-01-25T07:32:40.377Z,1018.98
2017-01-25T07:33:54.348Z,1019.02
2017-01-25T07:35:09.226Z,1019.04
2017-01-25T07:36:22.651Z,1019.07
2017-01-25T07:37:36.142Z,1019.02
2017-01-25T07:38:49.659Z,1019.05
2017-01-25T07:40:05.790Z,1019.06
2017-01-25T07:41:19.365Z,1019.14
2017-01-25T07:42:32.961Z,1019.1
2017-01-25T07:43:46.444Z,1019.07
2017-01-25T07:45:00.058Z,1019.09
2017-01-25T07:46:13.922Z,1019.04
2017-01-25T07:47:27.547Z,1019.06
2017-01-25T07:48:41.026Z,1019.14
2017-01-25T07:49:54.468Z,1019.16
2017-01-25T07:51:07.969Z,1019.1
2017-01-25T07:52:21.679Z,1019.16
2017-01-25T07:53:35.182Z,1019.13
2017-01-25T07:54:49.553Z,1019.1
2017-01-25T07:56:03.040Z,1019.09
2017-01-25T07:57:16.924Z,1019.16
2017-01-25T07:58:30.661Z,1019.12
2017-01-25T07:59:44.295Z,1019.15
2017-01-25T08:00:57.700Z,1019.15
2017-01-25T08:02:11.313Z,1019.15
2017-01-25T08:03:24.786Z,1019.21
2017-01-25T08:04:38.515Z,1019.23
2017-01-25T08:05:52.909Z,1019.25
2017-01-25T08:07:07.361Z,1019.25
2017-01-25T08:08:20.955Z,1019.26
2017-01-25T08:09:34.469Z,1019.26
2017-01-25T08:10:48.256Z,1019.3
2017-01-25T08:12:02.485Z,1019.24
2017-01-25T08:13:15.958Z,1019.3
2017-01-25T08:14:30.344Z,1019.32
2017-01-25T08:15:45.019Z,1019.33
2017-01-25T08:16:58.812Z,1019.26
2017-01-25T08:18:12.738Z,1019.26
2017-01-25T08:19:26.212Z,1019.22
2017-01-25T08:20:39.707Z,1019.27
2017-01-25T08:21:53.989Z,1019.25
2017-01-25T08:27:38.480Z,1019.32
2017-01-25T08:28:52.303Z,1019.35
2017-01-25T08:30:05.926Z,1019.28
2017-01-25T08:31:19.773Z,1019.31
2017-01-25T08:32:33.835Z,1019.29
2017-01-25T08:33:47.371Z,1019.32
2017-01-25T08:35:01.165Z,1019.35
2017-01-25T08:36:14.631Z,1019.3
2017-01-25T08:37:28.516Z,1019.33
2017-01-25T08:38:42.078Z,1019.38
2017-01-25T08:39:55.665Z,1019.35
2017-01-25T08:41:09.591Z,1019.37
2017-01-25T08:42:23.014Z,1019.34
2017-01-25T08:43:36.779Z,1019.41
2017-01-25T08:44:50.235Z,1019.49
2017-01-25T08:46:03.814Z,1019.46
2017-01-25T08:47:18.150Z,1019.32
2017-01-25T08:48:31.682Z,1019.46
2017-01-25T08:49:45.734Z,1019.43
2017-01-25T08:50:59.249Z,1019.43
2017-01-25T08:52:13.187Z,1019.49
2017-01-25T08:53:27.553Z,1019.51
2017-01-25T08:54:41.440Z,1019.45
2017-01-25T08:55:54.943Z,1019.5
2017-01-25T08:57:08.410Z,1019.6
2017-01-25T08:58:21.967Z,1019.52
2017-01-25T08:59:39.082Z,1019.55
2017-01-25T09:00:52.560Z,1019.6
2017-01-25T09:02:06.159Z,1019.63
2017-01-25T09:03:19.895Z,1019.6
2017-01-25T09:04:33.535Z,1019.6
2017-01-25T09:05:47.421Z,1019.58
2017-01-25T09:07:01.182Z,1019.59
2017-01-25T09:08:14.740Z,1019.58
2017-01-25T09:09:28.835Z,1019.63
2017-01-25T09:10:43.828Z,1019.56
2017-01-25T09:11:57.607Z,1019.59
2017-01-25T09:13:11.345Z,1019.59
2017-01-25T09:14:24.994Z,1019.6
2017-01-25T09:15:39.001Z,1019.63
2017-01-25T09:16:52.797Z,1019.6
2017-01-25T09:18:06.950Z,1019.6
2017-01-25T09:19:20.581Z,1019.62
2017-01-25T09:20:34.367Z,1019.61
2017-01-25T09:21:48.933Z,1019.61
2017-01-25T09:23:02.564Z,1019.65
2017-01-25T09:24:16.908Z,1019.68
2017-01-25T09:25:30.487Z,1019.63
2017-01-25T09:26:44.213Z,1019.7
2017-01-25T09:27:57.931Z,1019.66
2017-01-25T09:29:11.460Z,1019.67
2017-01-25T09:30:25.828Z,1019.68
2017-01-25T09:31:39.492Z,1019.68
2017-01-25T09:32:53.249Z,1019.72
2017-01-25T09:34:06.890Z,1019.71
2017-01-25T09:35:20.564Z,1019.67
2017-01-25T09:40:55.072Z,1019.71
2017-01-25T09:42:08.937Z,1019.79
2017-01-25T09:43:22.487Z,1019.77
2017-01-25T09:44:35.967Z,1019.8
2017-01-25T09:45:49.456Z,1019.86
2017-01-25T09:47:03.047Z,1019.81
2017-01-25T09:48:16.967Z,1019.83
2017-01-25T09:49:30.528Z,1019.8
2017-01-25T09:50:44.103Z,1019.83
2017-01-25T09:51:58.846Z,1019.8
2017-01-25T09:53:12.416Z,1019.82
2017-01-25T09:54:27.393Z,1019.81
2017-01-25T09:55:41.490Z,1019.79
2017-01-25T09:56:55.340Z,1019.77
2017-01-25T09:58:09.845Z,1019.83
2017-01-25T09:59:23.433Z,1019.77
2017-01-25T10:00:37.334Z,1019.72
2017-01-25T10:01:51.978Z,1019.69
2017-01-25T10:03:05.959Z,1019.7
2017-01-25T10:04:19.669Z,1019.69
2017-01-25T10:05:34.188Z,1019.71
2017-01-25T10:06:48.431Z,1019.64
2017-01-25T10:08:02.521Z,1019.72
2017-01-25T10:09:16.187Z,1019.6
2017-01-25T10:10:30.350Z,1019.65
2017-01-25T10:11:44.192Z,1019.58
2017-01-25T10:12:58.304Z,1019.56
2017-01-25T10:14:12.833Z,1019.66
2017-01-25T10:15:27.320Z,1019.62
2017-01-25T10:16:41.023Z,1019.65
2017-01-25T10:17:55.154Z,1019.67
2017-01-25T10:19:11.804Z,1019.67
2017-01-25T10:20:26.603Z,1019.69
2017-01-25T10:21:40.286Z,1019.62
2017-01-25T10:22:55.942Z,1019.63
2017-01-25T10:24:09.723Z,1019.7
2017-01-25T10:25:23.777Z,1019.62
2017-01-25T10:26:37.441Z,1019.75
2017-01-25T10:27:51.384Z,1019.59
2017-01-25T10:29:06.336Z,1019.59
2017-01-25T10:39:34.420Z,1019.53
2017-01-25T10:40:48.097Z,1019.52
2017-01-25T10:42:01.630Z,1019.52
2017-01-25T10:43:15.266Z,1019.49
2017-01-25T10:45:20.151Z,1019.51
2017-01-25T10:46:34.107Z,1019.4
2017-01-25T10:47:47.676Z,1019.37
2017-01-25T10:49:01.235Z,1019.38
2017-01-25T10:50:14.993Z,1019.39
2017-01-25T10:51:28.563Z,1019.42
2017-01-25T10:52:42.128Z,1019.36
2017-01-25T10:53:55.583Z,1019.42
2017-01-25T10:55:09.095Z,1019.39
2017-01-25T10:56:23.047Z,1019.34
2017-01-25T10:57:36.610Z,1019.34
2017-01-25T10:58:50.142Z,1019.36
2017-01-25T11:00:04.183Z,1019.34
2017-01-25T11:01:19.145Z,1019.31
2017-01-25T11:02:33.061Z,1019.16
2017-01-25T11:03:46.802Z,1019.26
2017-01-25T11:05:00.265Z,1019.23
2017-01-25T11:06:13.709Z,1019.25
2017-01-25T11:07:27.778Z,1019.14
2017-01-25T11:08:41.563Z,1019.22
2017-01-25T11:09:55.138Z,1019.17
2017-01-25T11:11:08.569Z,1019.23
2017-01-25T11:12:22.491Z,1019.12
2017-01-25T11:13:35.970Z,1019.1
2017-01-25T11:14:49.762Z,1019.08
2017-01-25T11:16:03.234Z,1019.12
2017-01-25T11:17:16.796Z,1019.01
2017-01-25T11:18:30.249Z,1019.02
2017-01-25T11:19:44.092Z,1019.06
2017-01-25T11:20:57.873Z,1018.99
2017-01-25T11:22:11.325Z,1019.05
2017-01-25T11:23:24.833Z,1019.08
2017-01-25T11:24:38.282Z,1018.91
2017-01-25T11:25:51.726Z,1018.94
2017-01-25T11:27:05.462Z,1018.97
2017-01-25T11:28:19.009Z,1018.99
2017-01-25T11:29:32.426Z,1018.98
2017-01-25T11:30:45.871Z,1018.94
2017-01-25T11:31:59.329Z,1018.99
2017-01-25T11:33:13.146Z,1018.91
2017-01-25T11:34:26.571Z,1018.85
2017-01-25T11:35:40.046Z,1018.8
2017-01-25T11:36:53.534Z,1018.79
2017-01-25T11:38:06.983Z,1018.82
2017-01-25T11:39:20.810Z,1018.81
2017-01-25T11:40:34.294Z,1018.78
2017-01-25T11:41:48.137Z,1018.74
2017-01-25T11:43:04.669Z,1018.8
2017-01-25T11:44:18.189Z,1018.75
2017-01-25T11:45:31.948Z,1018.74
2017-01-25T11:46:45.397Z,1018.79
2017-01-25T11:47:58.900Z,1018.78
2017-01-25T11:49:13.796Z,1018.8
2017-01-25T11:50:27.427Z,1018.8
2017-01-25T11:51:41.400Z,1018.71
2017-01-25T11:52:55.326Z,1018.73
2017-01-25T11:54:08.917Z,1018.73
2017-01-25T11:55:22.984Z,1018.79
2017-01-25T11:56:37.137Z,1018.73
2017-01-25T11:57:50.934Z,1018.77
2017-01-25T11:59:04.388Z,1018.79
2017-01-25T12:02:03.495Z,1018.75
2017-01-25T12:03:18.571Z,1018.67
2017-01-25T12:04:32.123Z,1018.68
2017-01-25T12:05:45.693Z,1018.58
2017-01-25T12:06:59.175Z,1018.69
2017-01-25T12:08:13.121Z,1018.66
2017-01-25T12:09:26.891Z,1018.58
2017-01-25T12:10:40.829Z,1018.63
2017-01-25T12:11:54.385Z,1018.64
2017-01-25T12:13:08.092Z,1018.55
2017-01-25T12:14:21.590Z,1018.46
2017-01-25T12:15:35.393Z,1018.5
2017-01-25T12:16:48.831Z,1018.54
2017-01-25T12:18:02.377Z,1018.58
2017-01-25T12:19:16.009Z,1018.5
2017-01-25T12:20:30.092Z,1018.51
2017-01-25T12:21:43.922Z,1018.49
2017-01-25T12:22:57.484Z,1018.55
2017-01-25T12:24:10.990Z,1018.5
2017-01-25T12:25:24.561Z,1018.54
2017-01-25T12:26:38.217Z,1018.53
2017-01-25T12:27:52.015Z,1018.37
2017-01-25T12:29:05.640Z,1018.41
2017-01-25T12:30:19.302Z,1018.43
2017-01-25T12:31:33.406Z,1018.41
2017-01-25T12:32:47.051Z,1018.39
2017-01-25T12:34:01.392Z,1018.37
2017-01-25T12:35:15.418Z,1018.35
2017-01-25T12:36:29.122Z,1018.29
2017-01-25T12:37:42.754Z,1018.24
2017-01-25T12:38:56.340Z,1018.25
2017-01-25T12:40:10.057Z,1018.22
2017-01-25T12:41:23.465Z,1018.23
2017-01-25T12:42:37.001Z,1018.21
2017-01-25T12:43:50.474Z,1018.13
2017-01-25T12:45:03.951Z,1018.16
2017-01-25T12:46:17.413Z,1018.17
2017-01-25T12:47:31.796Z,1018.17
2017-01-25T12:48:45.238Z,1018.04
2017-01-25T12:49:58.675Z,1018.1
2017-01-25T12:51:12.137Z,1018.12
2017-01-25T12:52:25.909Z,1018.15
2017-01-25T12:53:42.792Z,1018.12
2017-01-25T12:56:54.491Z,1018.18
2017-01-25T12:58:08.308Z,1018.16
2017-01-25T12:59:22.226Z,1018.14
2017-01-25T13:00:37.924Z,1018.12
2017-01-25T13:01:51.423Z,1018.13
2017-01-25T13:03:04.881Z,1018.12
2017-01-25T13:04:19.077Z,1018.1
2017-01-25T13:05:32.529Z,1018.12
2017-01-25T13:06:46.015Z,1018.1
2017-01-25T13:07:59.488Z,1018.14
2017-01-25T13:09:14.221Z,1017.97
2017-01-25T13:10:27.960Z,1018
2017-01-25T13:11:41.478Z,1018.03
2017-01-25T13:12:54.931Z,1017.98
2017-01-25T13:14:08.412Z,1018.1
2017-01-25T13:15:21.857Z,1018.06
2017-01-25T13:16:35.611Z,1018.12
2017-01-25T13:17:49.075Z,1018.06
2017-01-25T13:19:02.534Z,1018.08
2017-01-25T13:20:16.097Z,1018.13
2017-01-25T13:21:29.588Z,1018.06
2017-01-25T13:22:43.365Z,1018.06
2017-01-25T13:23:56.832Z,1018.08
2017-01-25T13:25:10.374Z,1018.11
2017-01-25T13:26:23.869Z,1018.1
2017-01-25T13:27:37.398Z,1018.09
2017-01-25T13:28:51.152Z,1018.06
2017-01-25T13:30:05.841Z,1018.14
2017-01-25T13:31:19.371Z,1018.13
2017-01-25T13:32:33.054Z,1018.12
2017-01-25T13:33:46.607Z,1018.1
2017-01-25T13:35:00.368Z,1018.17
2017-01-25T13:36:15.042Z,1018.07
2017-01-25T13:37:28.505Z,1018.06
2017-01-25T13:38:42.064Z,1018.15
2017-01-25T13:39:55.558Z,1018.14
2017-01-25T13:41:09.452Z,1018.03
2017-01-25T13:42:22.905Z,1018.13
2017-01-25T13:43:36.793Z,1018.03
2017-01-25T13:44:50.461Z,1018.05
2017-01-25T13:46:03.996Z,1018.05
2017-01-25T13:47:24.367Z,1018.03
2017-01-25T13:48:37.795Z,1018.12
2017-01-25T13:49:51.219Z,1018.01
2017-01-25T13:51:04.709Z,1018.02
2017-01-25T13:52:18.163Z,1018.06
2017-01-25T13:53:31.997Z,1018.02
2017-01-25T13:54:45.439Z,1018.05
2017-01-25T13:55:58.925Z,1018.04
2017-01-25T13:57:14.117Z,1018.09
2017-01-25T13:58:27.563Z,1018.08
2017-01-25T13:59:41.960Z,1018.08
2017-01-25T14:00:55.455Z,1018.18
2017-01-25T14:02:09.116Z,1018.11
2017-01-25T14:03:22.604Z,1018.06
2017-01-25T14:04:36.062Z,1018.11
2017-01-25T14:05:50.246Z,1017.97
2017-01-25T14:07:04.187Z,1018.12
2017-01-25T14:08:17.706Z,1018.06
2017-01-25T14:09:31.185Z,1018.15
2017-01-25T14:10:44.588Z,1018.11
2017-01-25T14:11:58.314Z,1018.14
2017-01-25T14:13:11.860Z,1018.08
2017-01-25T14:14:25.316Z,1018.1
2017-01-25T14:15:38.806Z,1018.06
2017-01-25T14:16:54.472Z,1018.07
2017-01-25T14:18:08.481Z,1018.07
2017-01-25T14:19:21.975Z,1018.05
2017-01-25T14:20:35.457Z,1018.09
2017-01-25T14:21:49.132Z,1018.13
2017-01-25T14:23:02.665Z,1018.1
2017-01-25T14:24:16.857Z,1018.19
2017-01-25T14:25:46.080Z,1018.09
2017-01-25T14:26:59.527Z,1018.13
2017-01-25T14:28:13.037Z,1018.19
2017-01-25T14:29:26.745Z,1018.14
2017-01-25T14:30:40.257Z,1018.16
2017-01-25T14:31:53.725Z,1018.09
2017-01-25T14:33:07.208Z,1018.12
2017-01-25T14:34:20.744Z,1018.13
2017-01-25T14:35:34.473Z,1018.04
2017-01-25T14:36:48.145Z,1018.09
2017-01-25T14:38:02.006Z,1018.11
2017-01-25T14:39:15.623Z,1018.16
2017-01-25T14:40:29.467Z,1018.15
2017-01-25T14:41:43.202Z,1018.12
2017-01-25T14:42:56.635Z,1018.18
2017-01-25T14:44:10.614Z,1018.16
2017-01-25T14:45:24.091Z,1018.11
2017-01-25T14:46:37.571Z,1018.12
2017-01-25T14:47:51.355Z,1018.12
2017-01-25T14:49:04.854Z,1018.13
2017-01-25T14:50:18.350Z,1018.07
2017-01-25T14:51:31.827Z,1018.07
2017-01-25T14:52:45.367Z,1018.1
2017-01-25T14:53:59.141Z,1018.09
2017-01-25T14:55:12.669Z,1018.07
2017-01-25T14:56:26.234Z,1018.14
2017-01-25T14:57:39.767Z,1018.16
2017-01-25T14:58:53.458Z,1018.11
2017-01-25T15:00:08.538Z,1018.06
2017-01-25T15:01:22.041Z,1018.05
2017-01-25T15:02:36.387Z,1018.11
2017-01-25T15:03:49.948Z,1018.08
2017-01-25T15:05:03.427Z,1018.06
2017-01-25T15:06:17.238Z,1018.05
2017-01-25T15:07:30.716Z,1018.1
2017-01-25T15:08:44.272Z,1018.09
2017-01-25T15:09:58.190Z,1018.05
2017-01-25T15:11:11.720Z,1018.02
2017-01-25T15:12:25.486Z,1018.08
2017-01-25T15:13:38.906Z,1018.04
2017-01-25T15:14:52.427Z,1018.05
2017-01-25T15:16:06.021Z,1018.02
2017-01-25T15:17:19.484Z,1018.02
2017-01-25T15:18:33.319Z,1018.06
2017-01-25T15:19:46.722Z,1018.04
2017-01-25T15:21:00.321Z,1018.02
2017-01-25T15:22:13.919Z,1018.03